Time;durP1;ratioP1;P1;durP2;ratioP2;P2;SDS_P1;SDS_P2;PMS_P1;PMS_P2;Temp;Humidity;BMP_temperature;BMP_pressure;BME280_temperature;BME280_humidity;BME280_pressure;Samples;Min_cycle;Max_cycle;Signal;HPM_P1;HPM_P2
2022/06/21 00:01:02;;;;;;;8.65;2.53;;;16.00;77.30;;;;;;5102630;28;20020;-72
2022/06/21 00:03:29;;;;;;;6.30;2.38;;;16.00;77.10;;;;;;5099466;28;20033;-73
2022/06/21 00:05:56;;;;;;;5.03;2.83;;;16.00;77.10;;;;;;5100157;28;20658;-72
2022/06/21 00:08:35;;;;;;;6.88;2.65;;;16.00;77.10;;;;;;5104607;28;20051;-71
2022/06/21 00:11:04;;;;;;;8.20;3.25;;;15.90;77.00;;;;;;5098705;28;20460;-72
2022/06/21 00:13:33;;;;;;;10.38;3.63;;;15.90;77.20;;;;;;5099015;28;20490;-73
2022/06/21 00:16:07;;;;;;;8.52;3.38;;;15.90;77.20;;;;;;5081558;28;20079;-71
2022/06/21 00:18:36;;;;;;;12.18;4.15;;;15.90;77.30;;;;;;5101263;28;20514;-73
2022/06/21 00:21:03;;;;;;;7.55;3.15;;;15.90;77.30;;;;;;5106364;28;20043;-71
2022/06/21 00:23:32;;;;;;;9.02;3.22;;;15.90;77.40;;;;;;5104878;28;20035;-70
2022/06/21 00:25:59;;;;;;;10.85;3.72;;;15.90;77.40;;;;;;5108155;28;20873;-71
2022/06/21 00:28:26;;;;;;;8.57;3.40;;;15.90;77.50;;;;;;5105575;28;20110;-71
2022/06/21 00:30:54;;;;;;;7.30;4.10;;;15.90;77.50;;;;;;5107913;28;20020;-72
2022/06/21 00:33:23;;;;;;;8.13;3.45;;;15.90;77.50;;;;;;5104299;28;20036;-71
2022/06/21 00:35:58;;;;;;;7.85;4.25;;;15.80;77.50;;;;;;5107069;28;20048;-73
2022/06/21 00:38:34;;;;;;;10.63;4.00;;;15.80;77.30;;;;;;5104925;28;20483;-74
2022/06/21 00:41:06;;;;;;;7.80;3.97;;;15.80;77.30;;;;;;5103807;28;20019;-75
2022/06/21 00:43:38;;;;;;;5.93;4.25;;;15.80;77.30;;;;;;5105668;28;20024;-72
2022/06/21 00:46:22;;;;;;;7.10;3.92;;;15.80;77.30;;;;;;5105783;28;20036;-72
2022/06/21 00:48:50;;;;;;;6.57;4.63;;;15.80;77.00;;;;;;5105634;28;20093;-72
2022/06/21 00:51:22;;;;;;;15.88;4.50;;;15.80;76.80;;;;;;5104383;28;20019;-72
2022/06/21 00:54:02;;;;;;;11.82;3.83;;;15.80;76.70;;;;;;5104768;28;20421;-73
2022/06/21 00:56:43;;;;;;;8.38;3.63;;;15.80;76.80;;;;;;5105682;28;20491;-71
2022/06/21 00:59:25;;;;;;;5.95;3.03;;;15.80;76.50;;;;;;5103754;28;20032;-71
2022/06/21 01:01:57;;;;;;;9.18;3.15;;;15.80;76.40;;;;;;5102745;28;20038;-72
2022/06/21 01:04:40;;;;;;;6.95;2.90;;;15.80;76.40;;;;;;5103722;28;20130;-73
2022/06/21 01:07:10;;;;;;;7.90;2.17;;;15.80;76.70;;;;;;5099988;28;20184;-77
2022/06/21 01:09:43;;;;;;;5.32;2.33;;;15.80;76.90;;;;;;5102233;28;20495;-74
2022/06/21 01:12:18;;;;;;;6.57;2.20;;;15.80;77.10;;;;;;5099557;28;20035;-72
2022/06/21 01:14:52;;;;;;;8.70;1.55;;;15.80;77.30;;;;;;5105001;28;20545;-72
2022/06/21 01:17:19;;;;;;;7.38;1.90;;;15.80;77.40;;;;;;5106607;28;20036;-75
2022/06/21 01:19:50;;;;;;;6.00;2.00;;;15.80;77.60;;;;;;5104273;28;20043;-72
2022/06/21 01:22:33;;;;;;;9.43;2.35;;;15.90;77.60;;;;;;5104186;28;20021;-71
2022/06/21 01:25:05;;;;;;;10.40;2.28;;;15.90;77.70;;;;;;5106310;28;20024;-73
2022/06/21 01:27:32;;;;;;;11.75;2.15;;;15.90;78.00;;;;;;5104074;28;20020;-74
2022/06/21 01:29:59;;;;;;;5.22;1.92;;;15.90;78.90;;;;;;5104248;28;20024;-73
2022/06/21 01:32:26;;;;;;;4.72;1.98;;;15.90;79.10;;;;;;5104929;28;20028;-72
2022/06/21 01:34:53;;;;;;;4.22;1.30;;;16.00;78.90;;;;;;5104136;28;20055;-73
2022/06/21 01:37:26;;;;;;;6.93;1.48;;;16.00;78.50;;;;;;5103573;28;20122;-72
2022/06/21 01:40:17;;;;;;;6.63;1.60;;;16.00;78.20;;;;;;5107062;28;20078;-72
2022/06/21 01:42:54;;;;;;;2.80;1.33;;;15.90;77.80;;;;;;5103372;28;20032;-71
2022/06/21 01:45:38;;;;;;;1.55;1.10;;;16.00;77.70;;;;;;5104324;28;20433;-71
2022/06/21 01:48:20;;;;;;;4.97;1.40;;;15.90;77.60;;;;;;5103073;28;20024;-73
2022/06/21 01:50:50;;;;;;;5.97;1.70;;;16.00;77.60;;;;;;5104040;28;20559;-73
2022/06/21 01:53:20;;;;;;;5.30;1.50;;;15.90;77.50;;;;;;5109083;28;20456;-72
2022/06/21 01:55:55;;;;;;;3.70;1.77;;;15.90;77.50;;;;;;5103342;28;20039;-74
2022/06/21 01:58:29;;;;;;;2.92;1.40;;;15.90;77.60;;;;;;5104038;28;20040;-73
2022/06/21 02:01:04;;;;;;;5.72;1.98;;;15.90;77.70;;;;;;5109387;28;20032;-72
2022/06/21 02:03:35;;;;;;;3.97;1.65;;;15.90;77.90;;;;;;5100701;28;20024;-72
2022/06/21 02:06:07;;;;;;;5.32;2.55;;;15.90;78.10;;;;;;5105402;28;20123;-73
2022/06/21 02:08:55;;;;;;;8.65;2.33;;;15.90;78.40;;;;;;5102092;28;20111;-72
2022/06/21 02:11:28;;;;;;;7.63;3.50;;;15.90;78.70;;;;;;5104642;28;20047;-73
2022/06/21 02:16:51;;;;;;;8.48;2.50;;;15.90;79.20;;;;;;5103358;28;20555;-71
2022/06/21 02:19:33;;;;;;;5.05;1.85;;;15.90;79.70;;;;;;5098800;28;20078;-72
2022/06/21 02:22:00;;;;;;;9.57;2.20;;;15.90;80.30;;;;;;5104249;28;20560;-73
2022/06/21 02:24:29;;;;;;;7.05;2.28;;;15.90;80.70;;;;;;5106550;28;20031;-75
2022/06/21 02:26:57;;;;;;;9.45;2.15;;;15.90;81.10;;;;;;5100379;28;20123;-73
2022/06/21 02:29:24;;;;;;;6.80;2.40;;;15.90;81.50;;;;;;5085478;28;20503;-74
2022/06/21 02:31:50;;;;;;;8.60;3.08;;;15.90;81.80;;;;;;5106854;28;20031;-75
2022/06/21 02:34:31;;;;;;;10.63;3.20;;;15.90;82.10;;;;;;5101518;28;20031;-75
2022/06/21 02:37:01;;;;;;;11.00;2.67;;;15.90;82.50;;;;;;5101596;28;20410;-74
2022/06/21 02:39:30;;;;;;;12.60;2.95;;;15.90;82.90;;;;;;5105649;28;20038;-73
2022/06/21 02:42:03;;;;;;;9.60;2.72;;;15.90;83.10;;;;;;5106115;28;20058;-74
2022/06/21 02:45:03;;;;;;;8.20;2.70;;;15.90;83.30;;;;;;5104933;28;20086;-74
2022/06/21 02:47:37;;;;;;;9.82;2.95;;;15.90;83.40;;;;;;5016322;28;20088;-74
2022/06/21 02:50:25;;;;;;;9.25;3.33;;;15.90;83.60;;;;;;5103153;28;20065;-75
2022/06/21 02:52:55;;;;;;;5.90;2.45;;;15.90;83.70;;;;;;5102959;28;20053;-74
2022/06/21 02:55:29;;;;;;;8.23;2.30;;;15.90;83.90;;;;;;5105282;28;20042;-75
2022/06/21 02:58:04;;;;;;;13.25;3.55;;;15.90;84.30;;;;;;5104359;28;20047;-73
2022/06/21 03:00:31;;;;;;;14.80;3.63;;;15.90;84.70;;;;;;5105129;28;20479;-74
2022/06/21 03:03:01;;;;;;;21.55;3.78;;;15.90;85.20;;;;;;5101893;28;20548;-73
2022/06/21 03:05:29;;;;;;;12.05;3.20;;;15.90;85.40;;;;;;5101845;28;20027;-74
2022/06/21 03:08:02;;;;;;;12.48;3.85;;;15.90;85.20;;;;;;5101909;28;20043;-73
2022/06/21 03:10:35;;;;;;;12.93;2.58;;;15.90;85.10;;;;;;5101445;28;20036;-73
2022/06/21 03:13:17;;;;;;;10.77;2.30;;;15.90;85.30;;;;;;5104248;28;20086;-73
2022/06/21 03:15:48;;;;;;;8.88;2.20;;;15.90;85.40;;;;;;5102000;28;20646;-72
2022/06/21 03:18:22;;;;;;;10.38;3.08;;;15.80;85.40;;;;;;5106050;28;20131;-73
2022/06/21 03:20:51;;;;;;;18.90;2.73;;;15.80;85.70;;;;;;5097682;28;20094;-74
2022/06/21 03:23:20;;;;;;;11.23;2.35;;;15.90;85.90;;;;;;5102700;28;20062;-74
2022/06/21 03:26:04;;;;;;;6.05;2.17;;;15.80;85.90;;;;;;5099499;28;20024;-74
2022/06/21 03:28:41;;;;;;;15.05;2.17;;;15.80;85.90;;;;;;5083802;28;20032;-71
2022/06/21 03:31:28;;;;;;;6.72;2.17;;;15.80;85.90;;;;;;5101570;28;20043;-72
2022/06/21 03:34:01;;;;;;;8.70;1.92;;;15.80;85.90;;;;;;5101402;28;20386;-73
2022/06/21 03:36:28;;;;;;;9.40;2.50;;;15.80;85.90;;;;;;5103510;28;20073;-73
2022/06/21 03:39:05;;;;;;;11.43;2.45;;;15.80;85.90;;;;;;5102490;28;20038;-74
2022/06/21 03:42:11;;;;;;;7.45;1.73;;;15.70;85.90;;;;;;5098375;28;20040;-72
2022/06/21 03:45:17;;;;;;;8.80;1.88;;;15.70;85.90;;;;;;5102738;28;20402;-77
2022/06/21 03:48:04;;;;;;;10.80;2.50;;;15.70;86.20;;;;;;5099675;28;20092;-72
2022/06/21 03:51:16;;;;;;;11.40;2.30;;;15.70;86.30;;;;;;5103583;28;20075;-74
2022/06/21 03:54:40;;;;;;;21.02;2.30;;;15.70;86.40;;;;;;5094952;28;20462;-72
2022/06/21 03:57:17;;;;;;;13.23;2.50;;;15.70;86.50;;;;;;5103657;28;20058;-73
2022/06/21 03:59:59;;;;;;;12.48;2.30;;;15.70;86.70;;;;;;5103438;28;20077;-73
2022/06/21 04:03:08;;;;;;;6.40;1.63;;;15.70;86.80;;;;;;5102419;28;20513;-73
2022/06/21 04:05:41;;;;;;;9.82;2.63;;;15.70;86.80;;;;;;5100269;28;20040;-72
2022/06/21 04:08:47;;;;;;;5.75;2.47;;;15.70;87.00;;;;;;5098089;28;20409;-70
2022/06/21 04:11:59;;;;;;;8.80;2.55;;;15.70;87.10;;;;;;5102424;28;20032;-71
2022/06/21 04:14:54;;;;;;;16.92;2.33;;;15.70;87.10;;;;;;5102694;28;20032;-70
2022/06/21 04:17:41;;;;;;;10.68;2.67;;;15.70;87.30;;;;;;5099084;28;20517;-70
2022/06/21 04:21:00;;;;;;;6.80;2.10;;;15.60;87.10;;;;;;5102383;28;20055;-69
2022/06/21 04:24:12;;;;;;;7.30;2.65;;;15.70;87.30;;;;;;5100551;28;20083;-70
2022/06/21 04:27:13;;;;;;;7.53;2.72;;;15.70;87.60;;;;;;5099171;28;20111;-70
2022/06/21 04:29:50;;;;;;;36.45;25.80;;;15.70;88.00;;;;;;5100783;28;20063;-66
2022/06/21 04:32:36;;;;;;;26.13;16.35;;;15.70;88.10;;;;;;5103399;28;20020;-70
2022/06/21 04:35:46;;;;;;;18.02;9.98;;;15.70;88.10;;;;;;5098297;28;20038;-70
2022/06/21 04:38:35;;;;;;;15.30;6.07;;;15.70;88.00;;;;;;5103017;28;20748;-70
2022/06/21 04:41:32;;;;;;;15.90;5.45;;;15.70;88.00;;;;;;5080743;28;20096;-69
2022/06/21 04:44:24;;;;;;;16.35;7.07;;;15.60;87.70;;;;;;5098368;28;20491;-71
2022/06/21 04:47:00;;;;;;;19.55;9.88;;;15.60;87.70;;;;;;5099649;28;20028;-71
2022/06/21 04:49:39;;;;;;;17.67;7.38;;;15.60;87.70;;;;;;5101131;28;20028;-70
2022/06/21 04:52:28;;;;;;;16.90;5.78;;;15.60;87.80;;;;;;5099786;28;20457;-70
2022/06/21 04:54:55;;;;;;;21.90;6.55;;;15.60;87.70;;;;;;5103467;28;21130;-69
2022/06/21 04:57:25;;;;;;;13.93;5.45;;;15.60;87.50;;;;;;5101973;28;20040;-69
2022/06/21 05:00:05;;;;;;;10.07;5.22;;;15.60;87.20;;;;;;5098629;28;20031;-73
2022/06/21 05:02:39;;;;;;;24.15;7.35;;;15.60;87.00;;;;;;5102859;28;20100;-69
2022/06/21 05:05:33;;;;;;;11.65;6.00;;;15.60;86.80;;;;;;5098113;28;20119;-69
2022/06/21 05:08:05;;;;;;;18.08;7.03;;;15.60;86.50;;;;;;5101787;28;20036;-71
2022/06/21 05:10:36;;;;;;;12.40;7.10;;;15.50;86.20;;;;;;5105185;28;20175;-73
2022/06/21 05:13:17;;;;;;;16.83;6.65;;;15.50;86.10;;;;;;5105166;28;20027;-72
2022/06/21 05:15:44;;;;;;;18.00;7.43;;;15.50;86.00;;;;;;5106666;28;20414;-70
2022/06/21 05:18:24;;;;;;;12.20;5.95;;;15.50;85.90;;;;;;5105222;28;20047;-71
2022/06/21 05:20:59;;;;;;;17.83;7.88;;;15.50;86.20;;;;;;5100459;28;20044;-70
2022/06/21 05:23:26;;;;;;;;;;;15.50;86.40;;;;;;5103885;28;20081;-70
2022/06/21 05:25:54;;;;;;;13.93;6.18;;;15.50;86.60;;;;;;5107050;28;19907;-70
2022/06/21 05:28:43;;;;;;;11.13;6.07;;;15.50;86.70;;;;;;5101645;28;20494;-70
2022/06/21 05:31:20;;;;;;;11.90;6.07;;;15.50;86.60;;;;;;5106153;28;20024;-70
2022/06/21 05:34:11;;;;;;;10.55;5.63;;;15.50;86.60;;;;;;5102909;28;20036;-71
2022/06/21 05:36:47;;;;;;;12.77;6.05;;;15.50;86.30;;;;;;5107453;28;20059;-70
2022/06/21 05:39:22;;;;;;;14.15;5.10;;;15.50;86.20;;;;;;5101164;28;20019;-71
2022/06/21 05:41:50;;;;;;;;;;;15.50;86.00;;;;;;5107133;28;20024;-71
2022/06/21 05:44:34;;;;;;;13.32;6.65;;;15.50;85.90;;;;;;5102029;28;19915;-69
2022/06/21 05:47:25;;;;;;;13.88;5.28;;;15.50;85.80;;;;;;5106829;28;20517;-70
2022/06/21 05:49:53;;;;;;;12.55;4.65;;;15.50;85.80;;;;;;5106440;28;20031;-70
2022/06/21 05:52:22;;;;;;;14.73;6.82;;;15.50;85.80;;;;;;5102465;28;20040;-71
2022/06/21 05:55:17;;;;;;;12.52;4.72;;;15.50;85.70;;;;;;5103607;28;20077;-71
2022/06/21 05:57:52;;;;;;;9.60;3.83;;;15.50;85.60;;;;;;5104478;28;20047;-69
2022/06/21 06:00:42;;;;;;;14.23;3.80;;;15.50;85.70;;;;;;5105051;28;20514;-69
2022/06/21 06:03:21;;;;;;;10.88;3.72;;;15.50;85.50;;;;;;5100499;28;20659;-71
2022/06/21 06:05:49;;;;;;;7.07;3.83;;;15.50;85.20;;;;;;5105557;28;20027;-69
2022/06/21 06:08:23;;;;;;;9.35;4.05;;;15.50;85.10;;;;;;5104130;28;20055;-69
2022/06/21 06:10:50;;;;;;;8.68;3.33;;;15.50;85.00;;;;;;5104787;28;20028;-70
2022/06/21 06:13:23;;;;;;;10.60;3.53;;;15.50;84.70;;;;;;5099862;28;20514;-70
2022/06/21 06:15:57;;;;;;;13.38;3.58;;;15.50;84.40;;;;;;5105500;28;20138;-70
2022/06/21 06:18:36;;;;;;;9.05;2.97;;;15.50;84.20;;;;;;5100954;28;20085;-71
2022/06/21 06:21:18;;;;;;;8.68;2.80;;;15.40;84.00;;;;;;5107674;28;20569;-69
2022/06/21 06:24:07;;;;;;;5.70;2.90;;;15.40;83.80;;;;;;5102311;28;21074;-70
2022/06/21 06:26:40;;;;;;;8.02;3.10;;;15.40;83.60;;;;;;5104209;28;20107;-70
2022/06/21 06:29:18;;;;;;;6.95;3.13;;;15.40;83.40;;;;;;5104272;28;20521;-69
2022/06/21 06:31:55;;;;;;;6.05;2.85;;;15.40;83.20;;;;;;5107450;28;20028;-70
2022/06/21 06:34:29;;;;;;;11.38;4.07;;;15.40;83.00;;;;;;5102773;28;20059;-70
2022/06/21 06:37:01;;;;;;;7.68;3.72;;;15.40;82.80;;;;;;5102808;28;20470;-69
2022/06/21 06:39:30;;;;;;;6.57;2.85;;;15.40;82.70;;;;;;5104669;28;20378;-69
2022/06/21 06:42:04;;;;;;;12.77;2.83;;;15.40;82.70;;;;;;5108572;28;20032;-71
2022/06/21 06:44:47;;;;;;;5.93;3.25;;;15.40;82.70;;;;;;5101246;28;20028;-69
2022/06/21 06:47:36;;;;;;;7.07;3.17;;;15.40;82.70;;;;;;5103514;28;20069;-71
2022/06/21 06:50:12;;;;;;;4.18;3.40;;;15.40;82.70;;;;;;5102830;28;20032;-69
2022/06/21 06:53:04;;;;;;;5.50;2.60;;;15.40;82.60;;;;;;5102037;28;20123;-69
2022/06/21 06:55:47;;;;;;;6.78;3.15;;;15.40;82.60;;;;;;5105686;28;20031;-69
2022/06/21 06:58:44;;;;;;;4.57;2.95;;;15.40;82.60;;;;;;5103574;28;20552;-69
2022/06/21 07:01:16;;;;;;;5.82;2.70;;;15.40;82.30;;;;;;5106116;28;20069;-70
2022/06/21 07:03:47;;;;;;;6.18;3.15;;;15.40;82.10;;;;;;5101234;28;20119;-69
2022/06/21 07:06:18;;;;;;;6.95;2.97;;;15.40;81.90;;;;;;5102202;28;20118;-70
2022/06/21 07:09:11;;;;;;;10.73;3.80;;;15.40;81.80;;;;;;5102041;28;20035;-70
2022/06/21 07:11:41;;;;;;;11.38;3.70;;;15.40;81.80;;;;;;5098542;28;20091;-72
2022/06/21 07:14:21;;;;;;;10.63;4.40;;;15.40;82.00;;;;;;5103085;28;20077;-70
2022/06/21 07:17:02;;;;;;;6.45;3.00;;;15.40;81.90;;;;;;5104788;28;20425;-70
2022/06/21 07:19:28;;;;;;;9.55;3.53;;;15.50;81.80;;;;;;5099815;28;20036;-72
2022/06/21 07:21:55;;;;;;;9.25;4.70;;;15.50;82.30;;;;;;5101635;28;20036;-69
2022/06/21 07:24:22;;;;;;;12.00;4.63;;;15.50;81.70;;;;;;5101893;28;20035;-69
2022/06/21 07:27:02;;;;;;;12.40;5.45;;;15.50;81.70;;;;;;5103812;28;20018;-70
2022/06/21 07:29:56;;;;;;;8.70;5.03;;;15.50;81.70;;;;;;5099866;28;20035;-70
2022/06/21 07:32:39;;;;;;;19.25;5.47;;;15.50;81.80;;;;;;5105047;28;20097;-69
2022/06/21 07:35:33;;;;;;;8.60;3.72;;;15.50;82.00;;;;;;5103480;28;20513;-72
2022/06/21 07:38:11;;;;;;;19.35;5.22;;;15.50;82.40;;;;;;5091219;28;20517;-69
2022/06/21 07:40:43;;;;;;;13.68;4.30;;;15.50;82.50;;;;;;5096582;28;20502;-70
2022/06/21 07:43:22;;;;;;;14.05;4.57;;;15.60;82.80;;;;;;5103714;28;20411;-70
2022/06/21 07:45:54;;;;;;;9.52;3.13;;;15.60;83.00;;;;;;5101877;28;20031;-68
2022/06/21 07:48:38;;;;;;;9.38;3.28;;;15.60;83.30;;;;;;5102736;28;20024;-70
2022/06/21 07:51:21;;;;;;;7.70;3.08;;;15.60;83.50;;;;;;5102542;28;20085;-71
2022/06/21 07:53:55;;;;;;;7.32;2.67;;;15.60;83.90;;;;;;5101863;28;20032;-69
2022/06/21 07:56:31;;;;;;;6.00;2.72;;;15.60;83.90;;;;;;5101616;28;20042;-71
2022/06/21 07:59:22;;;;;;;8.35;2.80;;;15.70;83.90;;;;;;5103176;28;20028;-69
2022/06/21 08:07:27;;;;;;;5.97;1.98;;;15.70;84.00;;;;;;5104135;28;20146;-69
2022/06/21 08:09:58;;;;;;;6.38;3.17;;;15.70;84.20;;;;;;5100817;28;20035;-71
2022/06/21 08:12:25;;;;;;;8.02;2.40;;;15.70;84.30;;;;;;5098285;28;20105;-70
2022/06/21 08:14:53;;;;;;;7.57;2.80;;;15.80;84.50;;;;;;5100707;28;20399;-71
2022/06/21 08:17:42;;;;;;;10.15;2.65;;;15.80;84.60;;;;;;5106566;28;20038;-70
2022/06/21 08:20:41;;;;;;;10.43;2.75;;;15.90;84.80;;;;;;5096716;28;20562;-70
2022/06/21 08:23:14;;;;;;;10.95;3.13;;;15.90;84.90;;;;;;5100097;28;20035;-71
2022/06/21 08:25:49;;;;;;;11.63;2.83;;;15.90;85.00;;;;;;5103955;28;20579;-72
2022/06/21 08:28:20;;;;;;;8.77;2.45;;;15.90;84.90;;;;;;5104319;28;20093;-70
2022/06/21 08:30:52;;;;;;;5.90;2.17;;;16.00;84.80;;;;;;5101336;28;20588;-69
2022/06/21 08:33:26;;;;;;;4.82;2.40;;;16.00;85.20;;;;;;5102272;28;20077;-69
2022/06/21 08:36:00;;;;;;;6.22;2.10;;;16.00;84.30;;;;;;5097877;28;20490;-70
2022/06/21 08:38:35;;;;;;;9.23;3.20;;;16.00;84.10;;;;;;5100232;28;20016;-69
2022/06/21 08:41:55;;;;;;;4.43;1.80;;;16.00;83.70;;;;;;5100263;28;20012;-70
2022/06/21 08:44:40;;;;;;;4.30;1.92;;;16.10;83.70;;;;;;5088895;28;20122;-71
2022/06/21 08:47:31;;;;;;;5.15;1.75;;;16.10;83.30;;;;;;5102380;28;20032;-71
2022/06/21 08:50:23;;;;;;;6.57;2.00;;;16.10;83.10;;;;;;5108170;28;20038;-69
2022/06/21 08:53:18;;;;;;;4.28;2.15;;;16.10;83.10;;;;;;5102244;28;20038;-69
2022/06/21 08:56:00;;;;;;;7.13;2.05;;;16.10;83.00;;;;;;5106839;28;20039;-70
2022/06/21 08:59:04;;;;;;;5.80;1.90;;;16.10;83.00;;;;;;5103473;28;20483;-69
2022/06/21 09:02:01;;;;;;;10.35;2.65;;;16.10;82.80;;;;;;5101918;28;20046;-69
2022/06/21 09:04:35;;;;;;;;;;;16.10;83.10;;;;;;5105251;28;20039;-70
2022/06/21 09:07:01;;;;;;;;;;;16.20;83.40;;;;;;5108153;28;19903;-70
2022/06/21 09:09:37;;;;;;;;;;;16.30;83.80;;;;;;5104924;28;19912;-69
2022/06/21 09:12:16;;;;;;;;;;;16.40;83.80;;;;;;5105458;28;19954;-70
2022/06/21 09:14:42;;;;;;;;;;;16.40;83.60;;;;;;5103180;28;20346;-71
2022/06/21 09:17:11;;;;;;;;;;;16.40;83.30;;;;;;5110471;28;19919;-70
2022/06/21 09:19:58;;;;;;;;;;;16.50;83.30;;;;;;5100007;28;20006;-70
2022/06/21 09:22:27;;;;;;;;;;;16.60;82.90;;;;;;5108990;28;19916;-69
2022/06/21 09:24:53;;;;;;;;;;;16.70;82.80;;;;;;5104630;28;19907;-71
2022/06/21 09:27:27;;;;;;;;;;;16.60;82.30;;;;;;5106868;28;20313;-70
2022/06/21 09:30:11;;;;;;;;;;;16.70;82.10;;;;;;5104016;28;19971;-71
2022/06/21 09:32:44;;;;;;;;;;;16.70;81.90;;;;;;5104375;28;19911;-70
2022/06/21 09:35:16;;;;;;;;;;;16.70;81.70;;;;;;5104662;28;20351;-69
2022/06/21 09:37:56;;;;;;;;;;;16.70;81.60;;;;;;5105441;28;19934;-69
2022/06/21 09:40:33;;;;;;;;;;;16.80;81.50;;;;;;5103088;28;19923;-69
2022/06/21 09:43:01;;;;;;;;;;;16.90;81.40;;;;;;5103052;28;19912;-69
2022/06/21 09:45:33;;;;;;;;;;;16.90;81.20;;;;;;5102910;28;20413;-70
2022/06/21 09:47:59;;;;;;;;;;;16.90;81.00;;;;;;5103547;28;19904;-70
2022/06/21 09:50:32;;;;;;;;;;;16.90;80.80;;;;;;5107372;28;19995;-70
2022/06/21 09:53:01;;;;;;;;;;;17.00;80.70;;;;;;5106642;28;19908;-70
2022/06/21 09:55:47;;;;;;;;;;;17.00;80.70;;;;;;5107153;28;19907;-69
2022/06/21 09:58:17;;;;;;;;;;;17.00;80.80;;;;;;5086634;28;20329;-70
2022/06/21 10:00:46;;;;;;;;;;;17.00;81.00;;;;;;5104017;28;19938;-72
2022/06/21 10:03:21;;;;;;;;;;;16.90;81.10;;;;;;5102700;28;19908;-69
2022/06/21 10:05:54;;;;;;;;;;;16.90;81.30;;;;;;5108905;28;20021;-69
2022/06/21 10:08:40;;;;;;;;;;;17.00;81.40;;;;;;5105970;28;19908;-70
2022/06/21 10:11:06;;;;;;;;;;;16.90;81.60;;;;;;5102858;28;19986;-70
2022/06/21 10:13:44;;;;;;;;;;;16.90;81.60;;;;;;5103442;28;19904;-71
2022/06/21 10:16:13;;;;;;;;;;;16.90;81.70;;;;;;5104987;28;20324;-70
2022/06/21 10:18:41;;;;;;;;;;;16.90;81.80;;;;;;5103134;28;19908;-71
2022/06/21 10:21:11;;;;;;;;;;;16.90;81.80;;;;;;5101541;28;19922;-69
2022/06/21 10:23:55;;;;;;;;;;;16.90;81.80;;;;;;5105689;28;20316;-70
2022/06/21 10:26:40;;;;;;;;;;;16.90;81.70;;;;;;5104566;28;20327;-69
2022/06/21 10:29:24;;;;;;;;;;;17.00;81.80;;;;;;5101257;28;19904;-69
2022/06/21 10:32:01;;;;;;;;;;;17.00;81.80;;;;;;5099917;28;19908;-69
2022/06/21 10:34:33;;;;;;;;;;;17.00;81.80;;;;;;5103530;28;19973;-70
2022/06/21 10:37:22;;;;;;;;;;;17.10;81.90;;;;;;5101250;28;19923;-69
2022/06/21 10:40:07;;;;;;;;;;;17.10;82.00;;;;;;5089622;28;19907;-72
2022/06/21 10:42:51;;;;;;;;;;;17.10;82.00;;;;;;5102237;28;20305;-69
2022/06/21 10:45:31;;;;;;;;;;;17.20;82.10;;;;;;5102021;28;19919;-70
2022/06/21 10:47:57;;;;;;;;;;;17.20;82.10;;;;;;5104679;28;19973;-71
2022/06/21 10:50:24;;;;;;;;;;;17.20;82.00;;;;;;5098929;28;21204;-69
2022/06/21 10:53:02;;;;;;;;;;;17.30;82.00;;;;;;5107360;28;19915;-70
2022/06/21 10:55:36;;;;;;;;;;;17.30;81.90;;;;;;5097288;28;19912;-70
2022/06/21 10:58:02;;;;;;;;;;;17.40;81.90;;;;;;5098275;28;20317;-70
2022/06/21 11:03:32;;;;;;;;;;;17.40;81.80;;;;;;5100132;28;19933;-69
2022/06/21 11:06:16;;;;;;;;;;;17.50;81.70;;;;;;5103694;28;19912;-71
2022/06/21 11:08:55;;;;;;;;;;;17.50;81.70;;;;;;5101843;28;19914;-69
2022/06/21 11:11:22;;;;;;;;;;;17.50;81.50;;;;;;5098464;28;20005;-70
2022/06/21 11:13:54;;;;;;;;;;;17.60;81.20;;;;;;5102199;28;19908;-69
2022/06/21 11:16:28;;;;;;;;;;;17.60;81.00;;;;;;5100043;28;19916;-70
2022/06/21 11:19:10;;;;;;;;;;;17.60;80.90;;;;;;5104449;28;20006;-70
2022/06/21 11:21:55;;;;;;;;;;;17.70;80.70;;;;;;5007223;28;2493782;-69
2022/06/21 11:24:35;;;;;;;;;;;17.70;80.40;;;;;;5106283;28;20329;-70
2022/06/21 11:27:16;;;;;;;;;;;17.70;80.20;;;;;;5099303;28;19911;-69
2022/06/21 11:29:45;;;;;;;;;;;17.70;79.90;;;;;;5101831;28;19919;-71
2022/06/21 11:32:38;;;;;;;;;;;17.70;79.60;;;;;;5103662;28;20025;-72
2022/06/21 11:35:10;;;;;;;;;;;17.70;79.60;;;;;;5097797;28;19952;-70
2022/06/21 11:37:57;;;;;;;;;;;17.70;79.50;;;;;;5096586;28;20488;-73
2022/06/21 11:40:33;;;;;;;;;;;17.70;79.60;;;;;;5105386;28;19914;-71
2022/06/21 11:42:59;;;;;;;;;;;17.70;79.80;;;;;;5104266;28;19904;-70
2022/06/21 11:45:31;;;;;;;;;;;17.70;80.20;;;;;;5101482;28;19912;-71
2022/06/21 11:48:10;;;;;;;;;;;17.70;80.40;;;;;;5098273;28;20002;-71
2022/06/21 11:50:54;;;;;;;;;;;17.70;80.70;;;;;;5097000;28;19950;-70
2022/06/21 11:53:24;;;;;;;;;;;17.80;81.00;;;;;;5103491;28;20359;-69
2022/06/21 11:55:59;;;;;;;;;;;17.70;81.10;;;;;;5102250;28;19908;-69
2022/06/21 11:58:28;;;;;;;;;;;17.70;80.90;;;;;;5097941;28;19911;-73
2022/06/21 12:01:13;;;;;;;;;;;17.70;81.00;;;;;;5102056;28;19908;-72
2022/06/21 12:03:59;;;;;;;;;;;17.70;81.10;;;;;;5102545;28;19957;-73
2022/06/21 12:06:31;;;;;;;;;;;17.70;81.40;;;;;;5058689;28;19951;-70
2022/06/21 12:09:00;;;;;;;;;;;17.70;81.50;;;;;;5103202;28;19911;-70
2022/06/21 12:11:49;;;;;;;;;;;17.70;81.60;;;;;;5104567;28;19938;-71
2022/06/21 12:14:32;;;;;;;;;;;17.70;81.80;;;;;;5096334;28;19908;-73
2022/06/21 12:17:01;;;;;;;;;;;17.70;82.20;;;;;;5101198;28;19916;-71
2022/06/21 12:19:41;;;;;;;;;;;17.70;82.30;;;;;;5105200;28;19911;-72
2022/06/21 12:22:15;;;;;;;;;;;17.70;82.20;;;;;;5103725;28;19918;-70
2022/06/21 12:24:41;;;;;;;;;;;17.60;82.30;;;;;;5106926;28;19908;-72
2022/06/21 12:27:11;;;;;;;;;;;17.70;82.40;;;;;;5106046;28;19904;-70
2022/06/21 12:29:37;;;;;;;;;;;17.70;82.30;;;;;;5105242;28;19994;-71
2022/06/21 12:32:05;;;;;;;;;;;17.70;82.30;;;;;;5105699;28;19904;-70
2022/06/21 12:34:41;;;;;;;;;;;17.70;82.40;;;;;;5105341;28;19912;-71
2022/06/21 12:37:20;;;;;;;;;;;17.60;82.00;;;;;;5104503;28;19946;-70
2022/06/21 12:39:46;;;;;;;;;;;17.60;81.50;;;;;;5106041;28;20368;-71
2022/06/21 12:42:44;;;;;;;;;;;17.60;81.30;;;;;;5108421;28;20274;-70
2022/06/21 12:45:23;;;;;;;;;;;17.50;81.20;;;;;;5075562;28;19980;-71
2022/06/21 12:47:55;;;;;;;;;;;17.50;81.00;;;;;;5104997;28;20247;-69
2022/06/21 12:50:44;;;;;;;;;;;17.50;80.80;;;;;;5105330;28;19922;-70
2022/06/21 12:53:24;;;;;;;;;;;17.50;80.80;;;;;;5104472;28;19915;-69
2022/06/21 12:55:50;;;;;;;;;;;17.50;80.60;;;;;;5102744;28;19961;-70
2022/06/21 12:58:28;;;;;;;;;;;17.50;80.70;;;;;;5106976;28;19904;-69
2022/06/21 13:00:55;;;;;;;;;;;17.40;80.60;;;;;;5107599;28;19907;-70
2022/06/21 13:03:30;;;;;;;;;;;17.40;80.60;;;;;;5107068;28;19932;-70
2022/06/21 13:05:59;;;;;;;;;;;17.40;80.60;;;;;;5104293;28;20346;-70
2022/06/21 13:08:49;;;;;;;;;;;17.40;80.70;;;;;;5089413;28;20277;-70
2022/06/21 13:11:15;;;;;;;;;;;17.40;80.60;;;;;;5107917;28;19973;-71
2022/06/21 13:14:00;;;;;;;;;;;17.40;80.70;;;;;;5106769;28;19903;-71
2022/06/21 13:16:32;;;;;;;;;;;17.40;80.70;;;;;;5103465;28;19919;-70
2022/06/21 13:19:10;;;;;;;;;;;17.40;80.70;;;;;;5106503;28;19908;-71
2022/06/21 13:21:48;;;;;;;;;;;17.40;80.70;;;;;;5103198;28;20372;-70
2022/06/21 13:24:30;;;;;;;;;;;17.40;80.70;;;;;;5105396;28;19994;-70
2022/06/21 13:27:22;;;;;;;;;;;17.40;80.80;;;;;;5106963;28;19912;-69
2022/06/21 13:29:48;;;;;;;;;;;17.40;80.80;;;;;;5091329;28;20317;-70
2022/06/21 13:32:20;;;;;;;;;;;17.40;80.90;;;;;;5106019;28;19910;-69
2022/06/21 13:34:49;;;;;;;;;;;17.40;81.00;;;;;;5100076;28;19926;-72
2022/06/21 13:37:22;;;;;;;;;;;17.40;81.10;;;;;;5102220;28;19920;-71
2022/06/21 13:40:02;;;;;;;;;;;17.30;81.10;;;;;;5102096;28;19989;-71
2022/06/21 13:42:37;;;;;;;;;;;17.30;81.20;;;;;;5105653;28;20290;-70
2022/06/21 13:45:10;;;;;;;;;;;17.30;81.20;;;;;;5103460;28;19912;-71
2022/06/21 13:47:43;;;;;;;;;;;17.30;81.30;;;;;;5101077;28;19908;-70
2022/06/21 13:50:18;;;;;;;;;;;17.30;81.30;;;;;;5108113;28;19961;-70
2022/06/21 13:53:00;;;;;;;;;;;17.30;81.30;;;;;;5103889;28;19903;-71
2022/06/21 13:55:45;;;;;;;;;;;17.30;81.40;;;;;;5102354;28;19907;-70
2022/06/21 13:58:17;;;;;;;;;;;17.30;81.40;;;;;;5103378;28;19961;-71
2022/06/21 14:01:06;;;;;;;;;;;17.30;81.40;;;;;;5106357;28;19915;-72
2022/06/21 14:03:38;;;;;;;;;;;17.30;81.40;;;;;;5105476;28;19907;-70
2022/06/21 14:06:06;;;;;;;;;;;17.30;81.40;;;;;;5105977;28;19962;-70
2022/06/21 14:08:40;;;;;;;;;;;17.30;81.40;;;;;;5104313;28;19912;-73
2022/06/21 14:11:19;;;;;;;;;;;17.30;81.50;;;;;;5103436;28;19965;-71
2022/06/21 14:13:59;;;;;;;;;;;17.30;81.60;;;;;;5103394;28;20026;-73
2022/06/21 14:16:25;;;;;;;;;;;17.30;82.00;;;;;;5103296;28;19915;-77
2022/06/21 14:18:54;;;;;;;;;;;17.30;82.10;;;;;;5101909;28;19999;-71
2022/06/21 14:21:40;;;;;;;;;;;17.30;82.30;;;;;;5103743;27;19923;-77
2022/06/21 14:24:06;;;;;;;;;;;17.30;82.60;;;;;;5102882;28;20367;-73